createdAt,value
2018-12-25T00:02:26.133Z,75.91
2018-12-25T00:04:56.485Z,75.95
2018-12-25T00:07:26.589Z,75.85
2018-12-25T00:09:56.771Z,75.80
2018-12-25T00:12:26.888Z,75.94
2018-12-25T00:14:56.986Z,76.10
2018-12-25T00:17:27.333Z,76.10
2018-12-25T00:19:57.426Z,76.14
2018-12-25T00:22:29.767Z,76.03
2018-12-25T00:25:00.172Z,76.06
2018-12-25T00:27:30.249Z,76.22
2018-12-25T00:30:00.596Z,76.29
2018-12-25T00:32:31.055Z,76.30
2018-12-25T00:35:01.185Z,76.50
2018-12-25T00:37:31.298Z,76.16
2018-12-25T00:40:01.397Z,76.57
2018-12-25T00:42:31.503Z,76.62
2018-12-25T00:45:01.590Z,76.58
2018-12-25T00:47:31.935Z,76.49
2018-12-25T00:50:02.036Z,76.26
2018-12-25T00:52:32.148Z,76.26
2018-12-25T00:55:02.261Z,76.49
2018-12-25T00:57:32.369Z,76.61
2018-12-25T01:00:02.470Z,76.78
2018-12-25T01:02:32.650Z,76.75
2018-12-25T01:05:02.743Z,76.75
2018-12-25T01:07:32.857Z,76.60
2018-12-25T01:10:03.959Z,76.53
2018-12-25T01:12:34.065Z,76.46
2018-12-25T01:15:04.346Z,76.42
2018-12-25T01:17:34.432Z,76.55
2018-12-25T01:20:04.949Z,76.48
2018-12-25T01:22:35.061Z,76.56
2018-12-25T01:25:05.712Z,76.52
2018-12-25T01:27:35.976Z,76.51
2018-12-25T01:30:06.284Z,76.61
2018-12-25T01:32:36.367Z,76.63
2018-12-25T01:35:06.645Z,76.66
2018-12-25T01:37:36.733Z,76.66
2018-12-25T01:40:07.048Z,76.64
2018-12-25T01:42:37.139Z,76.58
2018-12-25T01:45:07.568Z,76.58
2018-12-25T01:47:37.660Z,76.59
2018-12-25T01:50:08.466Z,76.27
2018-12-25T01:52:38.545Z,76.61
2018-12-25T01:55:08.752Z,76.70
2018-12-25T01:57:38.856Z,76.82
2018-12-25T02:00:09.098Z,76.98
2018-12-25T02:02:39.196Z,77.03
2018-12-25T02:05:09.297Z,77.05
2018-12-25T02:07:39.412Z,77.11
2018-12-25T02:10:09.520Z,77.12
2018-12-25T02:12:39.900Z,77.17
2018-12-25T02:15:09.984Z,77.17
2018-12-25T02:17:40.076Z,77.22
2018-12-25T02:20:10.175Z,77.20
2018-12-25T02:22:40.527Z,77.31
2018-12-25T02:25:10.624Z,77.29
2018-12-25T02:27:40.724Z,77.42
2018-12-25T02:30:10.814Z,77.42
2018-12-25T02:32:40.981Z,77.21
2018-12-25T02:35:11.067Z,77.12
2018-12-25T02:37:41.506Z,77.26
2018-12-25T02:40:11.598Z,77.30
2018-12-25T02:42:41.959Z,77.20
2018-12-25T02:45:12.058Z,77.24
2018-12-25T02:47:46.410Z,77.24
2018-12-25T02:50:16.509Z,77.21
2018-12-25T02:52:46.636Z,77.28
2018-12-25T02:55:16.734Z,77.27
2018-12-25T02:57:46.835Z,77.19
2018-12-25T03:00:16.911Z,77.22
2018-12-25T03:02:47.032Z,77.14
2018-12-25T03:05:17.131Z,77.28
2018-12-25T03:07:47.222Z,77.43
2018-12-25T03:10:17.326Z,77.34
2018-12-25T03:12:47.410Z,77.29
2018-12-25T03:15:17.500Z,77.27
2018-12-25T03:17:47.869Z,77.26
2018-12-25T03:20:18.103Z,77.04
2018-12-25T03:22:48.188Z,77.08
2018-12-25T03:25:18.273Z,76.87
2018-12-25T03:27:48.356Z,76.78
2018-12-25T03:30:18.627Z,76.88
2018-12-25T03:32:49.030Z,76.81
2018-12-25T03:35:19.087Z,76.80
2018-12-25T03:37:49.164Z,76.80
2018-12-25T03:40:19.503Z,76.58
2018-12-25T03:42:49.586Z,76.59
2018-12-25T03:45:19.684Z,76.47
2018-12-25T03:47:50.015Z,76.48
2018-12-25T03:50:20.110Z,76.35
2018-12-25T03:52:50.186Z,76.36
2018-12-25T03:55:20.531Z,76.25
2018-12-25T03:57:50.593Z,76.24
2018-12-25T04:00:20.681Z,76.23
2018-12-25T04:02:50.747Z,76.32
2018-12-25T04:05:20.856Z,76.31
2018-12-25T04:07:50.961Z,76.24
2018-12-25T04:10:21.070Z,76.37
2018-12-25T04:12:51.189Z,76.19
2018-12-25T04:15:21.551Z,75.83
2018-12-25T04:17:51.870Z,75.81
2018-12-25T04:20:21.973Z,75.75
2018-12-25T04:22:52.299Z,75.71
2018-12-25T04:25:22.403Z,75.81
2018-12-25T04:27:57.596Z,75.84
2018-12-25T04:30:27.705Z,75.77
2018-12-25T04:32:57.790Z,75.67
2018-12-25T04:35:27.897Z,75.54
2018-12-25T04:37:57.977Z,75.28
2018-12-25T04:40:28.062Z,75.28
2018-12-25T04:42:58.391Z,75.21
2018-12-25T04:45:28.729Z,75.20
2018-12-25T04:47:58.827Z,74.91
2018-12-25T04:50:29.410Z,74.66
2018-12-25T04:52:59.877Z,74.61
2018-12-25T04:55:30.022Z,74.58
2018-12-25T04:58:00.131Z,74.33
2018-12-25T05:00:30.223Z,74.32
2018-12-25T05:03:00.305Z,74.42
2018-12-25T05:05:30.399Z,74.23
2018-12-25T05:08:00.511Z,74.19
2018-12-25T05:10:30.574Z,74.32
2018-12-25T05:13:00.661Z,74.35
2018-12-25T05:15:30.754Z,74.45
2018-12-25T05:18:00.834Z,74.07
2018-12-25T05:20:37.773Z,74.23
2018-12-25T05:23:02.710Z,74.06
2018-12-25T05:25:32.803Z,74.21
2018-12-25T05:28:02.925Z,74.39
2018-12-25T05:30:33.006Z,74.21
2018-12-25T05:33:03.104Z,74.25
2018-12-25T05:35:33.423Z,74.18
2018-12-25T05:38:03.508Z,74.12
2018-12-25T05:40:33.610Z,74.13
2018-12-25T05:43:03.699Z,73.70
2018-12-25T05:45:33.808Z,73.83
2018-12-25T05:48:03.900Z,73.79
2018-12-25T05:50:33.987Z,74.03
2018-12-25T05:53:04.094Z,74.05
2018-12-25T05:55:34.206Z,74.10
2018-12-25T05:58:04.291Z,74.04
2018-12-25T06:00:34.378Z,73.84
2018-12-25T06:03:05.467Z,73.84
2018-12-25T06:05:35.570Z,73.91
2018-12-25T06:08:05.946Z,73.63
2018-12-25T06:10:36.074Z,73.47
2018-12-25T06:13:06.162Z,73.62
2018-12-25T06:15:36.309Z,73.77
2018-12-25T06:18:06.405Z,73.64
2018-12-25T06:20:36.515Z,73.54
2018-12-25T06:23:06.607Z,73.44
2018-12-25T06:25:37.672Z,73.38
2018-12-25T06:28:07.757Z,73.46
2018-12-25T06:30:37.841Z,73.52
2018-12-25T06:33:07.930Z,73.47
2018-12-25T06:35:38.028Z,73.44
2018-12-25T06:38:08.110Z,73.30
2018-12-25T06:40:38.211Z,73.50
2018-12-25T06:43:08.289Z,73.34
2018-12-25T06:45:38.402Z,73.29
2018-12-25T06:48:08.495Z,73.18
2018-12-25T06:50:38.581Z,73.35
2018-12-25T06:53:08.949Z,73.16
2018-12-25T06:55:39.049Z,73.22
2018-12-25T06:58:09.142Z,73.41
2018-12-25T07:00:39.254Z,73.57
2018-12-25T07:03:09.336Z,73.60
2018-12-25T07:05:39.457Z,73.41
2018-12-25T07:08:09.793Z,73.54
2018-12-25T07:10:39.881Z,73.49
2018-12-25T07:13:09.953Z,73.52
2018-12-25T07:15:40.046Z,73.93
2018-12-25T07:18:11.083Z,73.59
2018-12-25T07:20:41.250Z,73.77
2018-12-25T07:23:11.319Z,73.49
2018-12-25T07:25:41.407Z,73.43
2018-12-25T07:28:11.474Z,73.32
2018-12-25T07:30:41.578Z,73.32
2018-12-25T07:33:11.669Z,73.22
2018-12-25T07:35:41.775Z,73.04
2018-12-25T07:38:12.121Z,73.16
2018-12-25T07:40:42.237Z,73.18
2018-12-25T07:43:12.567Z,73.22
2018-12-25T07:45:42.925Z,73.44
2018-12-25T07:48:13.016Z,73.45
2018-12-25T07:50:43.115Z,73.45
2018-12-25T07:53:13.441Z,73.28
2018-12-25T07:55:43.534Z,73.27
2018-12-25T07:58:13.751Z,73.46
2018-12-25T08:00:43.838Z,73.54
2018-12-25T08:03:13.949Z,73.49
2018-12-25T08:05:44.042Z,73.22
2018-12-25T08:08:14.152Z,73.17
2018-12-25T08:10:44.236Z,72.87
2018-12-25T08:13:14.333Z,72.96
2018-12-25T08:15:44.418Z,72.81
2018-12-25T08:18:14.514Z,72.90
2018-12-25T08:20:44.606Z,72.88
2018-12-25T08:23:14.702Z,72.80
2018-12-25T08:25:44.806Z,72.75
2018-12-25T08:28:14.909Z,72.78
2018-12-25T08:30:45.015Z,72.80
2018-12-25T08:33:15.119Z,72.65
2018-12-25T08:35:45.202Z,72.75
2018-12-25T08:38:15.556Z,72.66
2018-12-25T08:40:45.650Z,72.80
2018-12-25T08:43:15.917Z,72.89
2018-12-25T08:45:46.021Z,72.51
2018-12-25T08:48:16.365Z,72.66
2018-12-25T08:50:46.459Z,72.55
2018-12-25T08:53:16.801Z,72.55
2018-12-25T08:55:47.428Z,72.44
2018-12-25T08:58:17.563Z,72.39
2018-12-25T09:00:47.689Z,72.54
2018-12-25T09:03:17.784Z,72.83
2018-12-25T09:05:47.877Z,72.86
2018-12-25T09:08:17.950Z,72.90
2018-12-25T09:10:48.108Z,72.85
2018-12-25T09:13:18.193Z,72.79
2018-12-25T09:15:48.295Z,72.86
2018-12-25T09:18:18.395Z,72.97
2018-12-25T09:20:48.477Z,73.07
2018-12-25T09:23:19.799Z,73.23
2018-12-25T09:25:49.905Z,73.33
2018-12-25T09:28:19.990Z,73.53
2018-12-25T09:30:50.073Z,73.58
2018-12-25T09:33:20.165Z,73.64
2018-12-25T09:35:50.268Z,73.78
2018-12-25T09:38:20.361Z,73.37
2018-12-25T09:40:50.442Z,73.43
2018-12-25T09:43:20.534Z,73.59
2018-12-25T09:45:50.647Z,73.49
2018-12-25T09:48:20.958Z,73.47
2018-12-25T09:50:51.054Z,72.86
2018-12-25T09:53:21.614Z,72.86
2018-12-25T09:55:51.701Z,73.09
2018-12-25T09:58:21.873Z,72.40
2018-12-25T10:00:52.032Z,72.79
2018-12-25T10:03:22.151Z,72.83
2018-12-25T10:05:52.230Z,72.65
2018-12-25T10:08:22.326Z,72.59
2018-12-25T10:10:52.429Z,72.38
2018-12-25T10:13:22.510Z,72.24
2018-12-25T10:15:52.615Z,72.38
2018-12-25T10:18:22.724Z,72.21
2018-12-25T10:20:52.818Z,72.44
2018-12-25T10:23:22.906Z,72.40
2018-12-25T10:25:52.990Z,72.08
2018-12-25T10:28:23.083Z,72.03
2018-12-25T10:30:53.256Z,72.13
2018-12-25T10:33:23.359Z,72.76
2018-12-25T10:35:53.548Z,71.90
2018-12-25T10:38:23.629Z,72.17
2018-12-25T10:40:53.718Z,72.49
2018-12-25T10:43:23.795Z,72.10
2018-12-25T10:45:53.886Z,71.93
2018-12-25T10:48:23.974Z,72.13
2018-12-25T10:50:54.090Z,72.27
2018-12-25T10:53:24.173Z,72.20
2018-12-25T10:55:54.594Z,72.53
2018-12-25T10:58:24.763Z,71.66
2018-12-25T11:00:59.415Z,70.96
2018-12-25T11:03:29.757Z,71.44
2018-12-25T11:05:59.842Z,71.90
2018-12-25T11:08:29.946Z,71.71
2018-12-25T11:11:00.024Z,71.07
2018-12-25T11:13:30.813Z,70.54
2018-12-25T11:16:00.921Z,70.43
2018-12-25T11:18:31.020Z,70.39
2018-12-25T11:21:01.102Z,70.15
2018-12-25T11:23:31.208Z,70.07
2018-12-25T11:26:01.318Z,70.17
2018-12-25T11:28:31.415Z,69.57
2018-12-25T11:31:01.780Z,70.60
2018-12-25T11:33:33.135Z,69.95
2018-12-25T11:36:03.232Z,70.20
2018-12-25T11:38:33.331Z,70.33
2018-12-25T11:41:03.418Z,70.42
2018-12-25T11:43:33.605Z,69.74
2018-12-25T11:46:03.680Z,69.28
2018-12-25T11:48:33.781Z,69.41
2018-12-25T11:51:04.151Z,69.80
2018-12-25T11:53:34.515Z,69.81
2018-12-25T11:56:04.865Z,69.98
2018-12-25T11:58:35.032Z,69.88
2018-12-25T12:01:05.730Z,69.81
2018-12-25T12:03:35.863Z,69.61
2018-12-25T12:06:06.923Z,69.90
2018-12-25T12:08:37.029Z,69.69
2018-12-25T12:11:07.421Z,69.93
2018-12-25T12:13:37.591Z,69.95
2018-12-25T12:16:07.714Z,69.97
2018-12-25T12:18:38.784Z,70.31
2018-12-25T12:21:08.956Z,69.41
2018-12-25T12:23:39.050Z,69.58
2018-12-25T12:26:09.155Z,69.65
2018-12-25T12:28:39.239Z,69.24
2018-12-25T12:31:09.349Z,69.54
2018-12-25T12:33:39.441Z,69.57
2018-12-25T12:36:10.505Z,69.07
2018-12-25T12:38:40.687Z,69.61
2018-12-25T12:41:10.816Z,69.42
2018-12-25T12:43:40.923Z,69.12
2018-12-25T12:47:09.803Z,69.33
2018-12-25T12:49:39.475Z,69.07
2018-12-25T12:52:09.154Z,69.17
2018-12-25T12:54:39.449Z,69.00
2018-12-25T12:57:09.260Z,68.95
2018-12-25T12:59:38.932Z,69.07
2018-12-25T13:02:08.605Z,69.48
2018-12-25T13:04:38.289Z,69.25
2018-12-25T13:07:07.962Z,69.35
2018-12-25T13:09:37.636Z,69.57
2018-12-25T13:12:07.315Z,68.51
2018-12-25T13:14:37.027Z,68.51
2018-12-25T13:17:06.715Z,68.30
2018-12-25T13:19:36.456Z,68.64
2018-12-25T13:22:06.133Z,68.93
2018-12-25T13:24:35.817Z,69.17
2018-12-25T13:27:05.842Z,69.41
2018-12-25T13:29:35.517Z,69.40
2018-12-25T13:32:05.581Z,69.50
2018-12-25T13:34:35.265Z,69.68
2018-12-25T13:37:05.302Z,69.84
2018-12-25T13:39:35.234Z,69.87
2018-12-25T13:42:05.557Z,70.07
2018-12-25T13:44:35.240Z,69.98
2018-12-25T13:47:05.385Z,69.97
2018-12-25T13:49:35.079Z,70.03
2018-12-25T13:52:05.615Z,70.27
2018-12-25T13:54:35.585Z,70.39
2018-12-25T13:57:05.253Z,70.22
2018-12-25T13:59:35.186Z,70.17
2018-12-25T14:02:05.609Z,70.49
2018-12-25T14:04:35.288Z,70.43
2018-12-25T14:07:05.553Z,70.57
2018-12-25T14:09:35.308Z,70.72
2018-12-25T14:12:05.440Z,70.79
2018-12-25T14:14:35.139Z,71.00
2018-12-25T14:17:05.417Z,70.80
2018-12-25T14:19:35.110Z,70.71
2018-12-25T14:22:05.106Z,70.86
2018-12-25T14:24:34.783Z,70.72
2018-12-25T14:27:05.326Z,70.96
2018-12-25T14:29:35.007Z,71.01
2018-12-25T14:32:05.365Z,71.13
2018-12-25T14:34:35.042Z,71.03
2018-12-25T14:37:05.374Z,71.21
2018-12-25T14:39:35.067Z,71.19
2018-12-25T14:42:05.599Z,71.42
2018-12-25T14:44:35.530Z,71.57
2018-12-25T14:47:05.479Z,71.44
2018-12-25T14:49:35.152Z,71.44
2018-12-25T14:52:05.323Z,71.56
2018-12-25T14:54:34.998Z,71.37
2018-12-25T14:57:05.353Z,71.64
2018-12-25T14:59:35.022Z,71.79
2018-12-25T15:02:05.495Z,71.42
2018-12-25T15:04:35.184Z,71.48
2018-12-25T15:07:05.550Z,71.49
2018-12-25T15:09:35.238Z,71.19
2018-12-25T15:12:05.727Z,71.50
2018-12-25T15:14:35.417Z,71.63
2018-12-25T15:17:05.241Z,71.64
2018-12-25T15:19:34.951Z,71.52
2018-12-25T15:22:05.134Z,71.83
2018-12-25T15:24:34.817Z,71.79
2018-12-25T15:27:05.505Z,71.92
2018-12-25T15:29:35.177Z,71.96
2018-12-25T15:32:05.283Z,72.00
2018-12-25T15:34:34.978Z,72.21
2018-12-25T15:37:05.395Z,72.21
2018-12-25T15:39:35.071Z,72.24
2018-12-25T15:42:05.265Z,72.21
2018-12-25T15:44:34.941Z,72.23
2018-12-25T15:47:05.411Z,72.08
2018-12-25T15:49:35.101Z,72.36
2018-12-25T15:52:05.362Z,72.39
2018-12-25T15:54:36.521Z,72.48
2018-12-25T15:57:08.681Z,72.60
2018-12-25T15:59:38.366Z,72.71
2018-12-25T16:02:08.030Z,72.64
2018-12-25T16:04:37.956Z,72.49
2018-12-25T16:07:07.630Z,72.73
2018-12-25T16:09:37.334Z,72.58
2018-12-25T16:12:07.014Z,72.71
2018-12-25T16:14:36.705Z,72.81
2018-12-25T16:17:06.383Z,72.71
2018-12-25T16:19:36.079Z,72.58
2018-12-25T16:22:05.761Z,72.63
2018-12-25T16:24:35.434Z,72.50
2018-12-25T16:27:06.773Z,72.64
2018-12-25T16:29:36.506Z,72.51
2018-12-25T16:32:06.185Z,72.68
2018-12-25T16:34:35.870Z,72.77
2018-12-25T16:37:05.549Z,72.76
2018-12-25T16:39:35.243Z,72.80
2018-12-25T16:42:05.839Z,72.77
2018-12-25T16:44:35.538Z,72.75
2018-12-25T16:47:05.343Z,72.83
2018-12-25T16:49:34.950Z,73.05
2018-12-25T16:52:05.355Z,73.19
2018-12-25T16:54:35.041Z,73.36
2018-12-25T16:57:05.504Z,73.36
2018-12-25T16:59:35.229Z,73.37
2018-12-25T17:02:05.337Z,73.49
2018-12-25T17:04:35.375Z,73.60
2018-12-25T17:07:05.290Z,73.73
2018-12-25T17:09:34.986Z,73.77
2018-12-25T17:12:06.053Z,73.88
2018-12-25T17:14:35.756Z,73.98
2018-12-25T17:17:05.441Z,74.07
2018-12-25T17:19:35.458Z,74.17
2018-12-25T17:22:05.199Z,74.13
2018-12-25T17:24:34.885Z,74.17
2018-12-25T17:27:05.504Z,74.21
2018-12-25T17:29:35.531Z,74.19
2018-12-25T17:32:05.847Z,74.23
2018-12-25T17:34:35.554Z,74.28
2018-12-25T17:37:05.595Z,74.21
2018-12-25T17:39:35.552Z,74.34
2018-12-25T17:42:05.495Z,74.30
2018-12-25T17:44:35.190Z,74.13
2018-12-25T17:47:05.395Z,74.15
2018-12-25T17:49:35.123Z,74.11
2018-12-25T17:52:11.769Z,74.17
2018-12-25T17:54:41.453Z,73.96
2018-12-25T17:57:11.140Z,73.88
2018-12-25T17:59:40.830Z,73.76
2018-12-25T18:02:10.882Z,73.82
2018-12-25T18:04:40.587Z,73.64
2018-12-25T18:07:10.609Z,73.53
2018-12-25T18:09:40.289Z,73.58
2018-12-25T18:12:10.192Z,73.53
2018-12-25T18:14:40.016Z,73.55
2018-12-25T18:17:09.722Z,73.49
2018-12-25T18:19:39.405Z,73.47
2018-12-25T18:22:09.095Z,73.42
2018-12-25T18:24:38.952Z,73.10
2018-12-25T18:27:08.648Z,73.29
2018-12-25T18:29:38.349Z,72.94
2018-12-25T18:32:08.420Z,72.98
2018-12-25T18:34:38.373Z,73.07
2018-12-25T18:37:08.070Z,73.02
2018-12-25T18:39:38.128Z,72.85
2018-12-25T18:42:07.825Z,72.94
2018-12-25T18:44:37.524Z,72.84
2018-12-25T18:47:07.291Z,72.89
2018-12-25T18:49:37.004Z,72.84
2018-12-25T18:52:06.681Z,72.43
2018-12-25T18:54:36.453Z,72.50
2018-12-25T18:57:06.155Z,72.49
2018-12-25T18:59:35.830Z,72.69
2018-12-25T19:02:05.613Z,72.72
2018-12-25T19:04:35.414Z,72.05
2018-12-25T19:07:05.351Z,72.22
2018-12-25T19:09:35.065Z,72.17
2018-12-25T19:12:05.540Z,71.96
2018-12-25T19:14:35.521Z,71.89
2018-12-25T19:17:05.479Z,72.05
2018-12-25T19:19:35.243Z,72.17
2018-12-25T19:22:05.607Z,71.83
2018-12-25T19:24:36.358Z,72.26
2018-12-25T19:27:06.249Z,72.32
2018-12-25T19:29:35.927Z,72.39
2018-12-25T19:32:05.670Z,72.43
2018-12-25T19:34:35.333Z,72.57
2018-12-25T19:37:06.980Z,72.59
2018-12-25T19:39:36.660Z,72.69
2018-12-25T19:42:06.359Z,72.55
2018-12-25T19:44:36.027Z,72.75
2018-12-25T19:47:05.812Z,72.84
2018-12-25T19:49:35.561Z,72.97
2018-12-25T19:52:05.576Z,73.13
2018-12-25T19:54:35.351Z,73.28
2018-12-25T19:57:05.497Z,73.22
2018-12-25T19:59:35.201Z,72.77
2018-12-25T20:02:05.198Z,72.91
2018-12-25T20:04:40.831Z,73.21
2018-12-25T20:08:00.533Z,73.10
2018-12-25T20:10:42.597Z,73.14
2018-12-25T20:13:56.502Z,72.80
2018-12-25T20:17:16.345Z,73.01
2018-12-25T20:20:18.960Z,73.08
2018-12-25T20:23:39.988Z,73.12
2018-12-25T20:26:27.819Z,73.36
2018-12-25T20:29:33.753Z,73.17
2018-12-25T20:32:48.093Z,72.95
2018-12-25T20:36:05.845Z,73.14
2018-12-25T20:39:37.568Z,73.02
2018-12-25T20:42:26.085Z,73.17
2018-12-25T20:45:24.308Z,72.81
2018-12-25T20:48:21.222Z,72.62
2018-12-25T20:51:21.594Z,72.96
2018-12-25T20:54:38.894Z,72.75
2018-12-25T20:57:44.261Z,72.64
2018-12-25T21:00:57.100Z,72.45
2018-12-25T21:04:08.271Z,72.39
2018-12-25T21:06:57.938Z,72.15
2018-12-25T21:10:17.691Z,72.32
2018-12-25T21:13:19.166Z,72.15
2018-12-25T21:16:36.368Z,71.83
2018-12-25T21:19:53.223Z,71.99
2018-12-25T21:22:58.291Z,71.85
2018-12-25T21:26:03.802Z,72.01
2018-12-25T21:28:34.388Z,72.02
2018-12-25T21:31:04.575Z,72.34
2018-12-25T21:33:34.420Z,72.24
2018-12-25T21:36:04.299Z,72.12
2018-12-25T21:38:34.045Z,72.02
2018-12-25T21:41:04.085Z,72.19
2018-12-25T21:43:34.179Z,72.21
2018-12-25T21:46:04.219Z,72.40
2018-12-25T21:48:34.551Z,72.41
2018-12-25T21:51:04.385Z,72.40
2018-12-25T21:53:34.603Z,72.59
2018-12-25T21:56:05.494Z,72.51
2018-12-25T21:58:35.302Z,72.44
2018-12-25T22:01:05.178Z,72.66
2018-12-25T22:03:35.130Z,72.53
2018-12-25T22:06:05.813Z,72.56
2018-12-25T22:08:35.752Z,72.40
2018-12-25T22:11:05.433Z,72.54
2018-12-25T22:13:35.125Z,72.47
2018-12-25T22:16:05.230Z,72.49
2018-12-25T22:18:35.178Z,72.46
2018-12-25T22:21:05.179Z,72.58
2018-12-25T22:23:34.893Z,72.54
2018-12-25T22:26:05.446Z,72.69
2018-12-25T22:28:35.364Z,72.54
2018-12-25T22:31:05.462Z,72.33
2018-12-25T22:33:35.180Z,72.49
2018-12-25T22:36:05.279Z,72.30
2018-12-25T22:38:34.950Z,72.48
2018-12-25T22:41:05.106Z,72.52
2018-12-25T22:43:34.792Z,72.35
2018-12-25T22:46:05.446Z,72.67
2018-12-25T22:48:35.153Z,72.56
2018-12-25T22:51:05.282Z,72.63
2018-12-25T22:53:34.971Z,72.64
2018-12-25T22:56:05.114Z,72.48
2018-12-25T22:58:34.805Z,72.69
2018-12-25T23:01:04.707Z,72.74
2018-12-25T23:03:34.649Z,72.58
2018-12-25T23:06:05.294Z,72.79
2018-12-25T23:08:34.961Z,72.87
2018-12-25T23:11:05.187Z,72.93
2018-12-25T23:13:34.871Z,73.16
2018-12-25T23:16:05.543Z,73.28
2018-12-25T23:18:35.477Z,73.01
2018-12-25T23:21:06.555Z,73.17
2018-12-25T23:23:36.241Z,73.23
2018-12-25T23:26:05.935Z,73.18
2018-12-25T23:28:35.692Z,73.13
2018-12-25T23:31:05.507Z,73.07
2018-12-25T23:33:35.126Z,73.15
2018-12-25T23:36:05.214Z,73.04
2018-12-25T23:38:34.890Z,73.14
2018-12-25T23:41:04.579Z,73.15
2018-12-25T23:43:34.268Z,73.20
2018-12-25T23:46:03.954Z,73.26
2018-12-25T23:48:33.624Z,73.31
2018-12-25T23:51:03.309Z,73.34
2018-12-25T23:53:32.993Z,73.32
2018-12-25T23:56:02.688Z,73.30
2018-12-25T23:58:32.455Z,73.26
